sensor_id;sensor_type;location;lat;lon;timestamp;pressure;altitude;pressure_sealevel;temperature;humidity
57900;BME280;60605;53.716;19.940;2023-05-14T00:04:21;101117.52;;;9.45;92.44
57900;BME280;60605;53.716;19.940;2023-05-14T00:09:25;101116.55;;;9.39;92.07
57900;BME280;60605;53.716;19.940;2023-05-14T00:14:28;101115.96;;;9.31;91.96
57900;BME280;60605;53.716;19.940;2023-05-14T00:19:32;101121.64;;;9.23;92.59
57900;BME280;60605;53.716;19.940;2023-05-14T00:24:35;101125.31;;;9.17;93.52
57900;BME280;60605;53.716;19.940;2023-05-14T00:29:38;101121.77;;;9.15;94.04
57900;BME280;60605;53.716;19.940;2023-05-14T00:34:42;101124.52;;;9.12;94.20
57900;BME280;60605;53.716;19.940;2023-05-14T00:39:45;101126.07;;;9.08;94.36
57900;BME280;60605;53.716;19.940;2023-05-14T00:44:48;101124.44;;;9.04;94.50
57900;BME280;60605;53.716;19.940;2023-05-14T00:49:51;101123.24;;;8.97;94.05
57900;BME280;60605;53.716;19.940;2023-05-14T00:54:54;101118.80;;;8.85;93.95
57900;BME280;60605;53.716;19.940;2023-05-14T00:59:58;101117.07;;;8.73;94.57
57900;BME280;60605;53.716;19.940;2023-05-14T01:05:01;101110.02;;;8.63;95.09
57900;BME280;60605;53.716;19.940;2023-05-14T01:15:29;101110.45;;;8.45;96.51
57900;BME280;60605;53.716;19.940;2023-05-14T01:20:33;101105.06;;;8.38;97.05
57900;BME280;60605;53.716;19.940;2023-05-14T01:25:36;101103.56;;;8.33;97.50
57900;BME280;60605;53.716;19.940;2023-05-14T01:30:42;101100.89;;;8.28;97.89
57900;BME280;60605;53.716;19.940;2023-05-14T01:35:47;101097.95;;;8.25;98.49
57900;BME280;60605;53.716;19.940;2023-05-14T01:40:51;101098.02;;;8.24;99.31
57900;BME280;60605;53.716;19.940;2023-05-14T01:45:55;101102.61;;;8.24;99.88
57900;BME280;60605;53.716;19.940;2023-05-14T01:50:58;101102.84;;;8.24;99.99
57900;BME280;60605;53.716;19.940;2023-05-14T01:56:01;101098.45;;;8.23;99.95
57900;BME280;60605;53.716;19.940;2023-05-14T02:01:04;101098.80;;;8.20;100.00
57900;BME280;60605;53.716;19.940;2023-05-14T02:06:07;101103.95;;;8.18;100.00
57900;BME280;60605;53.716;19.940;2023-05-14T02:11:11;101099.80;;;8.14;100.00
57900;BME280;60605;53.716;19.940;2023-05-14T02:16:14;101099.35;;;8.11;100.00
57900;BME280;60605;53.716;19.940;2023-05-14T02:21:17;101095.39;;;8.07;99.96
57900;BME280;60605;53.716;19.940;2023-05-14T02:26:20;101096.34;;;8.01;99.91
57900;BME280;60605;53.716;19.940;2023-05-14T02:31:24;101097.34;;;7.95;99.99
57900;BME280;60605;53.716;19.940;2023-05-14T02:36:27;101099.16;;;7.90;100.00
57900;BME280;60605;53.716;19.940;2023-05-14T02:41:30;101100.65;;;7.84;100.00
57900;BME280;60605;53.716;19.940;2023-05-14T02:46:33;101100.13;;;7.77;100.00
57900;BME280;60605;53.716;19.940;2023-05-14T02:51:37;101094.73;;;7.73;100.00
57900;BME280;60605;53.716;19.940;2023-05-14T02:56:40;101093.61;;;7.76;100.00
57900;BME280;60605;53.716;19.940;2023-05-14T03:01:43;101091.80;;;7.84;100.00
57900;BME280;60605;53.716;19.940;2023-05-14T03:06:46;101087.23;;;7.90;100.00
57900;BME280;60605;53.716;19.940;2023-05-14T03:11:49;101086.14;;;7.95;100.00
57900;BME280;60605;53.716;19.940;2023-05-14T03:16:53;101084.48;;;7.98;100.00
57900;BME280;60605;53.716;19.940;2023-05-14T03:21:56;101081.40;;;8.01;100.00
57900;BME280;60605;53.716;19.940;2023-05-14T03:26:59;101082.46;;;8.08;100.00
57900;BME280;60605;53.716;19.940;2023-05-14T03:32:02;101083.23;;;8.19;100.00
57900;BME280;60605;53.716;19.940;2023-05-14T03:37:05;101078.05;;;8.31;100.00
57900;BME280;60605;53.716;19.940;2023-05-14T03:42:08;101071.42;;;8.47;100.00
57900;BME280;60605;53.716;19.940;2023-05-14T03:47:11;101067.56;;;8.71;100.00
57900;BME280;60605;53.716;19.940;2023-05-14T03:52:14;101070.88;;;9.33;100.00
57900;BME280;60605;53.716;19.940;2023-05-14T03:57:17;101071.09;;;10.58;99.50
57900;BME280;60605;53.716;19.940;2023-05-14T04:02:20;101072.02;;;11.99;95.15
57900;BME280;60605;53.716;19.940;2023-05-14T04:07:24;101072.25;;;13.31;89.89
57900;BME280;60605;53.716;19.940;2023-05-14T04:12:27;101069.39;;;14.71;84.71
57900;BME280;60605;53.716;19.940;2023-05-14T04:17:30;101071.39;;;15.89;79.60
57900;BME280;60605;53.716;19.940;2023-05-14T04:22:35;101064.38;;;17.02;74.69
57900;BME280;60605;53.716;19.940;2023-05-14T04:27:38;101066.92;;;17.88;70.64
57900;BME280;60605;53.716;19.940;2023-05-14T04:32:41;101066.34;;;18.77;66.56
57900;BME280;60605;53.716;19.940;2023-05-14T04:37:44;101069.98;;;19.38;62.98
57900;BME280;60605;53.716;19.940;2023-05-14T04:42:47;101067.89;;;19.90;61.16
57900;BME280;60605;53.716;19.940;2023-05-14T04:47:51;101063.59;;;20.70;59.06
57900;BME280;60605;53.716;19.940;2023-05-14T04:52:54;101054.95;;;21.25;55.70
57900;BME280;60605;53.716;19.940;2023-05-14T04:57:57;101051.46;;;21.99;53.65
57900;BME280;60605;53.716;19.940;2023-05-14T05:03:00;101046.84;;;22.61;51.10
57900;BME280;60605;53.716;19.940;2023-05-14T05:08:03;101054.48;;;23.24;48.91
57900;BME280;60605;53.716;19.940;2023-05-14T05:13:07;101050.23;;;23.85;47.26
57900;BME280;60605;53.716;19.940;2023-05-14T05:18:10;101041.27;;;24.51;45.72
57900;BME280;60605;53.716;19.940;2023-05-14T05:23:13;101046.65;;;24.95;44.82
57900;BME280;60605;53.716;19.940;2023-05-14T05:28:17;101050.02;;;25.61;43.55
57900;BME280;60605;53.716;19.940;2023-05-14T05:33:20;101049.92;;;26.39;41.34
57900;BME280;60605;53.716;19.940;2023-05-14T05:38:23;101042.51;;;26.51;39.97
57900;BME280;60605;53.716;19.940;2023-05-14T05:43:26;101045.69;;;26.98;39.46
57900;BME280;60605;53.716;19.940;2023-05-14T05:48:32;101047.33;;;27.54;37.74
57900;BME280;60605;53.716;19.940;2023-05-14T05:53:35;101043.02;;;28.03;37.55
57900;BME280;60605;53.716;19.940;2023-05-14T05:58:38;101045.14;;;28.54;36.22
57900;BME280;60605;53.716;19.940;2023-05-14T06:03:41;101045.60;;;28.96;34.73
57900;BME280;60605;53.716;19.940;2023-05-14T06:08:44;101044.32;;;29.12;33.68
57900;BME280;60605;53.716;19.940;2023-05-14T06:13:47;101039.60;;;29.18;32.80
57900;BME280;60605;53.716;19.940;2023-05-14T06:18:50;101040.74;;;29.55;32.51
57900;BME280;60605;53.716;19.940;2023-05-14T06:23:57;101046.42;;;29.88;31.42
57900;BME280;60605;53.716;19.940;2023-05-14T06:29:00;101038.70;;;30.07;30.98
57900;BME280;60605;53.716;19.940;2023-05-14T06:34:03;101035.69;;;30.19;30.24
57900;BME280;60605;53.716;19.940;2023-05-14T06:39:06;101039.27;;;30.40;30.41
57900;BME280;60605;53.716;19.940;2023-05-14T06:44:09;101033.73;;;30.89;30.05
57900;BME280;60605;53.716;19.940;2023-05-14T06:49:12;101031.70;;;31.76;29.09
57900;BME280;60605;53.716;19.940;2023-05-14T06:54:16;101034.00;;;32.15;27.65
57900;BME280;60605;53.716;19.940;2023-05-14T06:59:19;101028.70;;;32.73;27.85
57900;BME280;60605;53.716;19.940;2023-05-14T07:04:22;101022.92;;;33.30;25.94
57900;BME280;60605;53.716;19.940;2023-05-14T07:09:25;101022.55;;;33.57;25.32
57900;BME280;60605;53.716;19.940;2023-05-14T07:14:29;101022.79;;;34.27;25.53
57900;BME280;60605;53.716;19.940;2023-05-14T07:19:32;101017.00;;;35.03;24.30
57900;BME280;60605;53.716;19.940;2023-05-14T07:24:35;101017.09;;;35.37;23.03
57900;BME280;60605;53.716;19.940;2023-05-14T07:29:38;101014.99;;;35.19;22.14
57900;BME280;60605;53.716;19.940;2023-05-14T07:34:41;101012.55;;;34.88;22.26
57900;BME280;60605;53.716;19.940;2023-05-14T07:39:44;101005.23;;;35.10;22.09
57900;BME280;60605;53.716;19.940;2023-05-14T07:44:47;100998.85;;;35.50;21.16
57900;BME280;60605;53.716;19.940;2023-05-14T07:49:53;100997.73;;;35.54;20.23
57900;BME280;60605;53.716;19.940;2023-05-14T07:54:56;100992.54;;;35.70;19.66
57900;BME280;60605;53.716;19.940;2023-05-14T08:00:00;100987.34;;;35.64;19.27
57900;BME280;60605;53.716;19.940;2023-05-14T08:05:05;100981.02;;;35.50;19.54
57900;BME280;60605;53.716;19.940;2023-05-14T08:10:08;100981.15;;;35.97;19.82
57900;BME280;60605;53.716;19.940;2023-05-14T08:15:12;100976.17;;;36.50;18.88
57900;BME280;60605;53.716;19.940;2023-05-14T08:20:15;100973.83;;;36.62;18.06
57900;BME280;60605;53.716;19.940;2023-05-14T08:25:19;100968.65;;;36.36;17.95
57900;BME280;60605;53.716;19.940;2023-05-14T08:30:22;100966.24;;;36.32;17.69
57900;BME280;60605;53.716;19.940;2023-05-14T08:35:26;100963.59;;;35.81;18.00
57900;BME280;60605;53.716;19.940;2023-05-14T08:40:30;100962.70;;;35.36;18.85
57900;BME280;60605;53.716;19.940;2023-05-14T08:45:33;100959.73;;;35.84;18.62
57900;BME280;60605;53.716;19.940;2023-05-14T08:50:37;100953.59;;;35.94;17.79
57900;BME280;60605;53.716;19.940;2023-05-14T08:55:40;100947.97;;;35.31;17.80
57900;BME280;60605;53.716;19.940;2023-05-14T09:00:45;100941.08;;;34.89;18.74
57900;BME280;60605;53.716;19.940;2023-05-14T09:05:48;100937.03;;;34.93;18.75
57900;BME280;60605;53.716;19.940;2023-05-14T09:10:53;100939.20;;;34.87;18.85
57900;BME280;60605;53.716;19.940;2023-05-14T09:15:56;100930.89;;;35.21;18.73
57900;BME280;60605;53.716;19.940;2023-05-14T09:21:00;100926.52;;;35.31;18.39
57900;BME280;60605;53.716;19.940;2023-05-14T09:26:04;100916.34;;;35.50;18.29
57900;BME280;60605;53.716;19.940;2023-05-14T09:31:08;100917.19;;;35.49;18.02
57900;BME280;60605;53.716;19.940;2023-05-14T09:36:11;100913.64;;;35.09;18.18
57900;BME280;60605;53.716;19.940;2023-05-14T09:41:15;100912.42;;;34.90;18.34
57900;BME280;60605;53.716;19.940;2023-05-14T09:46:18;100902.64;;;34.92;18.35
57900;BME280;60605;53.716;19.940;2023-05-14T09:51:21;100896.85;;;34.94;18.01
57900;BME280;60605;53.716;19.940;2023-05-14T09:56:25;100883.30;;;34.25;18.29
57900;BME280;60605;53.716;19.940;2023-05-14T10:01:29;100881.86;;;34.04;18.51
57900;BME280;60605;53.716;19.940;2023-05-14T10:06:35;100873.87;;;33.12;19.19
57900;BME280;60605;53.716;19.940;2023-05-14T10:11:41;100874.80;;;31.29;20.26
57900;BME280;60605;53.716;19.940;2023-05-14T10:16:46;100863.27;;;29.84;21.53
57900;BME280;60605;53.716;19.940;2023-05-14T10:21:58;100848.10;;;29.19;22.37
57900;BME280;60605;53.716;19.940;2023-05-14T10:27:05;100847.83;;;28.83;22.87
57900;BME280;60605;53.716;19.940;2023-05-14T10:32:09;100843.33;;;28.37;23.16
57900;BME280;60605;53.716;19.940;2023-05-14T10:37:16;100832.52;;;27.96;23.75
57900;BME280;60605;53.716;19.940;2023-05-14T10:42:20;100828.88;;;27.58;23.77
57900;BME280;60605;53.716;19.940;2023-05-14T10:47:27;100821.13;;;27.42;24.34
57900;BME280;60605;53.716;19.940;2023-05-14T10:52:30;100814.88;;;27.57;24.12
57900;BME280;60605;53.716;19.940;2023-05-14T10:57:38;100809.63;;;27.69;23.98
57900;BME280;60605;53.716;19.940;2023-05-14T11:02:42;100801.15;;;27.57;24.15
57900;BME280;60605;53.716;19.940;2023-05-14T11:07:47;100791.05;;;27.78;24.94
57900;BME280;60605;53.716;19.940;2023-05-14T11:12:50;100786.55;;;28.11;25.14
57900;BME280;60605;53.716;19.940;2023-05-14T11:17:54;100781.54;;;27.80;24.41
57900;BME280;60605;53.716;19.940;2023-05-14T11:22:57;100778.66;;;27.92;24.95
57900;BME280;60605;53.716;19.940;2023-05-14T11:28:00;100769.35;;;28.01;24.59
57900;BME280;60605;53.716;19.940;2023-05-14T11:33:04;100770.83;;;27.47;24.43
57900;BME280;60605;53.716;19.940;2023-05-14T11:38:12;100760.10;;;26.92;24.71
57900;BME280;60605;53.716;19.940;2023-05-14T11:43:15;100754.82;;;26.30;25.43
57900;BME280;60605;53.716;19.940;2023-05-14T11:48:18;100756.98;;;25.61;25.76
57900;BME280;60605;53.716;19.940;2023-05-14T11:53:26;100752.33;;;25.04;26.66
57900;BME280;60605;53.716;19.940;2023-05-14T11:58:32;100750.84;;;24.64;28.07
57900;BME280;60605;53.716;19.940;2023-05-14T12:03:36;100742.66;;;24.49;29.60
57900;BME280;60605;53.716;19.940;2023-05-14T12:08:39;100741.23;;;24.55;30.02
57900;BME280;60605;53.716;19.940;2023-05-14T12:13:42;100735.31;;;24.63;30.34
57900;BME280;60605;53.716;19.940;2023-05-14T12:18:45;100726.96;;;24.70;29.65
57900;BME280;60605;53.716;19.940;2023-05-14T12:23:53;100722.27;;;24.69;29.51
57900;BME280;60605;53.716;19.940;2023-05-14T12:28:58;100714.16;;;24.49;27.91
57900;BME280;60605;53.716;19.940;2023-05-14T12:34:02;100706.23;;;24.31;27.31
57900;BME280;60605;53.716;19.940;2023-05-14T12:39:06;100700.35;;;24.16;27.55
57900;BME280;60605;53.716;19.940;2023-05-14T12:44:09;100696.37;;;24.11;27.97
57900;BME280;60605;53.716;19.940;2023-05-14T12:49:12;100685.82;;;24.12;28.45
57900;BME280;60605;53.716;19.940;2023-05-14T12:54:15;100681.33;;;24.22;28.82
57900;BME280;60605;53.716;19.940;2023-05-14T12:59:18;100685.73;;;24.32;28.88
57900;BME280;60605;53.716;19.940;2023-05-14T13:04:21;100688.68;;;24.41;29.19
57900;BME280;60605;53.716;19.940;2023-05-14T13:09:25;100678.44;;;24.50;27.72
57900;BME280;60605;53.716;19.940;2023-05-14T13:14:30;100669.14;;;24.98;27.25
57900;BME280;60605;53.716;19.940;2023-05-14T13:19:33;100658.01;;;25.38;27.01
57900;BME280;60605;53.716;19.940;2023-05-14T13:24:36;100652.59;;;25.55;28.55
57900;BME280;60605;53.716;19.940;2023-05-14T13:29:40;100642.55;;;25.86;29.08
57900;BME280;60605;53.716;19.940;2023-05-14T13:34:44;100633.34;;;26.11;28.29
57900;BME280;60605;53.716;19.940;2023-05-14T13:39:47;100624.49;;;25.86;27.41
57900;BME280;60605;53.716;19.940;2023-05-14T13:44:52;100624.27;;;25.40;27.46
57900;BME280;60605;53.716;19.940;2023-05-14T13:49:55;100623.21;;;25.14;27.88
57900;BME280;60605;53.716;19.940;2023-05-14T13:54:58;100612.98;;;25.15;27.55
57900;BME280;60605;53.716;19.940;2023-05-14T14:00:02;100608.46;;;25.26;27.54
57900;BME280;60605;53.716;19.940;2023-05-14T14:05:07;100603.02;;;25.21;27.76
57900;BME280;60605;53.716;19.940;2023-05-14T14:10:14;100597.33;;;25.22;27.53
57900;BME280;60605;53.716;19.940;2023-05-14T14:15:20;100591.09;;;25.09;27.28
57900;BME280;60605;53.716;19.940;2023-05-14T14:20:25;100584.73;;;25.11;28.29
57900;BME280;60605;53.716;19.940;2023-05-14T14:25:29;100572.09;;;25.46;28.19
57900;BME280;60605;53.716;19.940;2023-05-14T14:30:32;100562.33;;;25.82;27.27
57900;BME280;60605;53.716;19.940;2023-05-14T14:35:37;100558.53;;;26.14;26.75
57900;BME280;60605;53.716;19.940;2023-05-14T14:40:40;100555.71;;;26.24;25.28
57900;BME280;60605;53.716;19.940;2023-05-14T14:45:43;100548.43;;;26.06;25.24
57900;BME280;60605;53.716;19.940;2023-05-14T14:50:51;100547.83;;;25.74;26.18
57900;BME280;60605;53.716;19.940;2023-05-14T14:55:54;100541.64;;;25.48;26.43
57900;BME280;60605;53.716;19.940;2023-05-14T15:00:58;100538.70;;;25.30;26.38
57900;BME280;60605;53.716;19.940;2023-05-14T15:06:05;100533.40;;;25.29;25.77
57900;BME280;60605;53.716;19.940;2023-05-14T15:11:08;100527.36;;;25.40;25.67
57900;BME280;60605;53.716;19.940;2023-05-14T15:16:11;100520.21;;;25.66;25.47
57900;BME280;60605;53.716;19.940;2023-05-14T15:21:15;100515.11;;;25.89;24.90
57900;BME280;60605;53.716;19.940;2023-05-14T15:26:19;100509.16;;;25.94;24.50
57900;BME280;60605;53.716;19.940;2023-05-14T15:31:23;100505.42;;;25.73;24.67
57900;BME280;60605;53.716;19.940;2023-05-14T15:36:27;100498.89;;;25.39;25.03
57900;BME280;60605;53.716;19.940;2023-05-14T15:41:31;100501.76;;;25.17;25.88
57900;BME280;60605;53.716;19.940;2023-05-14T15:46:36;100507.13;;;25.00;25.73
57900;BME280;60605;53.716;19.940;2023-05-14T15:51:39;100506.55;;;24.93;26.29
57900;BME280;60605;53.716;19.940;2023-05-14T15:56:43;100499.48;;;24.99;26.26
57900;BME280;60605;53.716;19.940;2023-05-14T16:01:46;100493.55;;;25.06;26.53
57900;BME280;60605;53.716;19.940;2023-05-14T16:06:50;100486.41;;;25.11;26.64
57900;BME280;60605;53.716;19.940;2023-05-14T16:11:53;100486.48;;;25.11;26.85
57900;BME280;60605;53.716;19.940;2023-05-14T16:16:56;100484.94;;;25.06;27.01
57900;BME280;60605;53.716;19.940;2023-05-14T16:22:00;100483.12;;;24.96;26.88
57900;BME280;60605;53.716;19.940;2023-05-14T16:27:04;100470.56;;;24.84;27.01
57900;BME280;60605;53.716;19.940;2023-05-14T16:32:07;100472.91;;;24.66;27.70
57900;BME280;60605;53.716;19.940;2023-05-14T16:37:11;100470.42;;;24.42;27.97
57900;BME280;60605;53.716;19.940;2023-05-14T16:42:15;100466.06;;;24.21;28.43
57900;BME280;60605;53.716;19.940;2023-05-14T16:47:19;100456.64;;;23.98;28.78
57900;BME280;60605;53.716;19.940;2023-05-14T16:52:22;100456.23;;;23.76;29.11
57900;BME280;60605;53.716;19.940;2023-05-14T16:57:26;100455.74;;;23.55;29.39
57900;BME280;60605;53.716;19.940;2023-05-14T17:02:29;100454.35;;;23.37;29.43
57900;BME280;60605;53.716;19.940;2023-05-14T17:07:33;100453.98;;;23.22;29.92
57900;BME280;60605;53.716;19.940;2023-05-14T17:12:36;100453.79;;;23.10;30.19
57900;BME280;60605;53.716;19.940;2023-05-14T17:17:38;100454.29;;;23.08;30.26
57900;BME280;60605;53.716;19.940;2023-05-14T17:22:42;100449.73;;;23.11;30.18
57900;BME280;60605;53.716;19.940;2023-05-14T17:27:46;100446.32;;;23.14;30.55
57900;BME280;60605;53.716;19.940;2023-05-14T17:32:52;100446.38;;;23.11;30.75
57900;BME280;60605;53.716;19.940;2023-05-14T17:37:56;100450.67;;;22.99;31.14
57900;BME280;60605;53.716;19.940;2023-05-14T17:43:05;100449.74;;;22.81;31.60
57900;BME280;60605;53.716;19.940;2023-05-14T17:48:08;100448.17;;;22.59;31.84
57900;BME280;60605;53.716;19.940;2023-05-14T17:53:12;100449.43;;;22.34;32.40
57900;BME280;60605;53.716;19.940;2023-05-14T17:58:16;100449.45;;;22.07;32.99
57900;BME280;60605;53.716;19.940;2023-05-14T18:03:19;100446.67;;;21.79;33.45
57900;BME280;60605;53.716;19.940;2023-05-14T18:08:23;100448.52;;;21.53;33.98
57900;BME280;60605;53.716;19.940;2023-05-14T18:13:26;100451.98;;;21.27;34.39
57900;BME280;60605;53.716;19.940;2023-05-14T18:18:31;100451.64;;;21.01;34.81
57900;BME280;60605;53.716;19.940;2023-05-14T18:23:34;100453.88;;;20.73;35.11
57900;BME280;60605;53.716;19.940;2023-05-14T18:28:38;100452.02;;;20.44;35.87
57900;BME280;60605;53.716;19.940;2023-05-14T18:33:42;100455.59;;;20.11;36.82
57900;BME280;60605;53.716;19.940;2023-05-14T18:38:45;100458.08;;;19.79;37.88
57900;BME280;60605;53.716;19.940;2023-05-14T18:43:48;100456.08;;;19.46;38.99
57900;BME280;60605;53.716;19.940;2023-05-14T18:48:52;100455.70;;;19.11;40.34
57900;BME280;60605;53.716;19.940;2023-05-14T18:53:55;100455.99;;;18.78;41.97
57900;BME280;60605;53.716;19.940;2023-05-14T18:58:58;100457.48;;;18.45;43.25
57900;BME280;60605;53.716;19.940;2023-05-14T19:04:01;100462.08;;;18.11;44.64
57900;BME280;60605;53.716;19.940;2023-05-14T19:09:07;100462.52;;;17.77;45.71
57900;BME280;60605;53.716;19.940;2023-05-14T19:14:11;100459.38;;;17.44;46.96
57900;BME280;60605;53.716;19.940;2023-05-14T19:19:14;100462.77;;;17.16;48.65
57900;BME280;60605;53.716;19.940;2023-05-14T19:24:17;100459.80;;;16.89;50.24
57900;BME280;60605;53.716;19.940;2023-05-14T19:29:20;100458.08;;;16.64;51.54
57900;BME280;60605;53.716;19.940;2023-05-14T19:34:24;100455.14;;;16.36;52.80
57900;BME280;60605;53.716;19.940;2023-05-14T19:39:30;100454.27;;;16.11;53.70
57900;BME280;60605;53.716;19.940;2023-05-14T19:44:33;100456.09;;;15.91;54.75
57900;BME280;60605;53.716;19.940;2023-05-14T19:49:36;100454.71;;;15.69;55.79
57900;BME280;60605;53.716;19.940;2023-05-14T19:54:39;100448.30;;;15.44;57.14
57900;BME280;60605;53.716;19.940;2023-05-14T19:59:43;100444.52;;;15.18;58.45
57900;BME280;60605;53.716;19.940;2023-05-14T20:04:47;100444.58;;;14.91;59.57
57900;BME280;60605;53.716;19.940;2023-05-14T20:09:52;100444.35;;;14.69;61.52
57900;BME280;60605;53.716;19.940;2023-05-14T20:14:55;100439.04;;;14.53;62.58
57900;BME280;60605;53.716;19.940;2023-05-14T20:19:58;100436.39;;;14.40;62.73
57900;BME280;60605;53.716;19.940;2023-05-14T20:25:01;100436.00;;;14.29;63.08
57900;BME280;60605;53.716;19.940;2023-05-14T20:30:04;100434.98;;;14.18;63.91
57900;BME280;60605;53.716;19.940;2023-05-14T20:35:08;100432.20;;;14.08;64.65
57900;BME280;60605;53.716;19.940;2023-05-14T20:40:12;100427.80;;;13.99;64.97
57900;BME280;60605;53.716;19.940;2023-05-14T20:45:15;100431.45;;;13.92;65.32
57900;BME280;60605;53.716;19.940;2023-05-14T20:50:19;100432.59;;;13.87;65.96
57900;BME280;60605;53.716;19.940;2023-05-14T20:55:26;100431.71;;;13.84;66.30
57900;BME280;60605;53.716;19.940;2023-05-14T21:00:30;100426.09;;;13.81;65.89
57900;BME280;60605;53.716;19.940;2023-05-14T21:05:33;100424.48;;;13.76;65.52
57900;BME280;60605;53.716;19.940;2023-05-14T21:10:37;100413.14;;;13.68;65.12
57900;BME280;60605;53.716;19.940;2023-05-14T21:15:40;100406.94;;;13.58;65.06
57900;BME280;60605;53.716;19.940;2023-05-14T21:20:43;100409.11;;;13.48;65.26
57900;BME280;60605;53.716;19.940;2023-05-14T21:25:46;100407.73;;;13.41;65.74
57900;BME280;60605;53.716;19.940;2023-05-14T21:30:49;100401.61;;;13.38;66.52
57900;BME280;60605;53.716;19.940;2023-05-14T21:35:54;100397.18;;;13.38;66.90
57900;BME280;60605;53.716;19.940;2023-05-14T21:40:57;100395.79;;;13.34;67.25
57900;BME280;60605;53.716;19.940;2023-05-14T21:46:01;100391.36;;;13.29;67.22
57900;BME280;60605;53.716;19.940;2023-05-14T21:51:05;100392.15;;;13.28;68.34
57900;BME280;60605;53.716;19.940;2023-05-14T21:56:08;100388.27;;;13.29;69.28
57900;BME280;60605;53.716;19.940;2023-05-14T22:01:11;100384.45;;;13.29;69.83
57900;BME280;60605;53.716;19.940;2023-05-14T22:06:14;100380.48;;;13.31;70.00
57900;BME280;60605;53.716;19.940;2023-05-14T22:11:18;100376.63;;;13.34;70.40
57900;BME280;60605;53.716;19.940;2023-05-14T22:16:21;100368.78;;;13.35;71.32
57900;BME280;60605;53.716;19.940;2023-05-14T22:21:25;100366.29;;;13.35;71.80
57900;BME280;60605;53.716;19.940;2023-05-14T22:26:28;100366.89;;;13.33;72.37
57900;BME280;60605;53.716;19.940;2023-05-14T22:31:31;100362.62;;;13.29;72.96
57900;BME280;60605;53.716;19.940;2023-05-14T22:36:34;100358.20;;;13.25;73.60
57900;BME280;60605;53.716;19.940;2023-05-14T22:41:37;100351.80;;;13.20;74.19
57900;BME280;60605;53.716;19.940;2023-05-14T22:46:40;100347.44;;;13.14;74.38
57900;BME280;60605;53.716;19.940;2023-05-14T22:51:43;100344.41;;;13.07;74.41
57900;BME280;60605;53.716;19.940;2023-05-14T22:56:46;100340.84;;;13.01;74.26
57900;BME280;60605;53.716;19.940;2023-05-14T23:01:49;100333.66;;;12.92;74.06
57900;BME280;60605;53.716;19.940;2023-05-14T23:06:52;100323.69;;;12.82;74.24
57900;BME280;60605;53.716;19.940;2023-05-14T23:11:56;100321.52;;;12.72;74.38
57900;BME280;60605;53.716;19.940;2023-05-14T23:16:59;100317.05;;;12.62;74.77
57900;BME280;60605;53.716;19.940;2023-05-14T23:22:02;100315.44;;;12.52;74.74
57900;BME280;60605;53.716;19.940;2023-05-14T23:27:06;100310.09;;;12.40;74.66
57900;BME280;60605;53.716;19.940;2023-05-14T23:32:09;100296.66;;;12.29;74.99
57900;BME280;60605;53.716;19.940;2023-05-14T23:37:12;100289.20;;;12.18;75.26
57900;BME280;60605;53.716;19.940;2023-05-14T23:42:15;100279.23;;;12.07;75.88
57900;BME280;60605;53.716;19.940;2023-05-14T23:47:18;100273.98;;;11.98;76.56
57900;BME280;60605;53.716;19.940;2023-05-14T23:52:22;100267.95;;;11.89;77.08
57900;BME280;60605;53.716;19.940;2023-05-14T23:57:25;100260.16;;;11.82;77.91
